Time;durP1;ratioP1;P1;durP2;ratioP2;P2;SDS_P1;SDS_P2;PMS_P1;PMS_P2;Temp;Humidity;BMP_temperature;BMP_pressure;BME280_temperature;BME280_humidity;BME280_pressure;Samples;Min_cycle;Max_cycle;Signal;HPM_P1;HPM_P2
2023/10/18 00:01:54;;;;;;;;;;;;;;;7.49;73.20;101231.48;106294;1260;125225;-83
2023/10/18 00:04:23;;;;;;;;;;;;;;;7.50;73.03;101234.30;106268;1261;75529;-83
2023/10/18 00:06:54;;;;;;;;;;;;;;;7.48;72.93;101228.14;106337;1263;66255;-83
2023/10/18 00:12:07;;;;;;;;;;;;;;;7.40;72.84;101231.77;106399;1260;62047;-79
2023/10/18 00:14:34;;;;;;;;;;;;;;;7.38;72.94;101232.38;106401;1260;124901;-79
2023/10/18 00:17:01;;;;;;;;;;;;;;;7.42;73.13;101236.58;106480;1262;74198;-79
2023/10/18 00:19:27;;;;;;;;;;;;;;;7.49;73.27;101234.81;106356;1260;125384;-78
2023/10/18 00:21:54;;;;;;;;;;;;;;;7.57;73.41;101228.20;106323;1260;72739;-78
2023/10/18 00:24:21;;;;;;;;;;;;;;;7.66;73.40;101222.80;106430;1260;62094;-83
2023/10/18 00:26:48;;;;;;;;;;;;;;;7.73;73.27;101225.75;106344;1261;125983;-84
2023/10/18 00:29:15;;;;;;;;;;;;;;;7.82;73.34;101225.45;106548;1262;75018;-84
2023/10/18 00:31:41;;;;;;;;;;;;;;;7.90;73.31;101219.52;106338;1263;125299;-79
2023/10/18 00:34:08;;;;;;;;;;;;;;;7.96;73.25;101218.39;106390;1259;71364;-78
2023/10/18 00:36:35;;;;;;;;;;;;;;;8.03;73.22;101217.08;106439;1263;61969;-78
2023/10/18 00:39:19;;;;;;;;;;;;;;;8.10;73.26;101216.16;106339;1260;125112;-78
2023/10/18 00:41:46;;;;;;;;;;;;;;;8.18;73.28;101212.48;106230;1260;74539;-78
2023/10/18 00:44:13;;;;;;;;;;;;;;;8.25;73.25;101211.20;106230;1259;125051;-78
2023/10/18 00:46:40;;;;;;;;;;;;;;;8.31;73.20;101208.64;106403;1257;73236;-77
2023/10/18 00:49:13;;;;;;;;;;;;;;;8.36;73.13;101209.91;106304;1263;124942;-78
2023/10/18 00:51:43;;;;;;;;;;;;;;;8.41;73.10;101208.16;106304;1260;61438;-78
2023/10/18 00:54:11;;;;;;;;;;;;;;;8.44;73.13;101209.89;106299;1260;75507;-79
2023/10/18 00:56:40;;;;;;;;;;;;;;;8.46;73.07;101209.27;106293;1263;124384;-79
2023/10/18 00:59:52;;;;;;;;;;;;;;;8.47;73.17;101205.83;106275;1261;72736;-79
2023/10/18 01:02:06;;;;;;;;;;;;;;;8.50;73.15;101203.31;106227;1259;124933;-79
2023/10/18 01:04:34;;;;;;;;;;;;;;;8.51;73.22;101198.30;106511;1262;61986;-78
2023/10/18 01:07:11;;;;;;;;;;;;;;;8.51;73.20;101193.23;106443;1257;125269;-79
2023/10/18 01:09:43;;;;;;;;;;;;;;;8.52;73.20;101190.11;106297;1263;66244;-79
2023/10/18 01:12:11;;;;;;;;;;;;;;;8.50;73.25;101189.69;106404;1260;71368;-79
2023/10/18 01:14:38;;;;;;;;;;;;;;;8.47;73.34;101190.44;106256;1259;124484;-79
2023/10/18 01:17:06;;;;;;;;;;;;;;;8.44;73.49;101191.35;106452;1260;62117;-80
2023/10/18 01:19:33;;;;;;;;;;;;;;;8.42;73.56;101190.20;106265;1261;124444;-82
2023/10/18 01:22:00;;;;;;;;;;;;;;;8.43;73.72;101192.17;106439;1263;66271;-84
2023/10/18 01:24:28;;;;;;;;;;;;;;;8.42;73.66;101191.77;106365;1260;72543;-84
2023/10/18 01:26:54;;;;;;;;;;;;;;;8.35;73.71;101184.70;106401;1260;124401;-84
2023/10/18 01:29:22;;;;;;;;;;;;;;;8.32;73.93;101183.15;106303;1259;62047;-83
2023/10/18 01:31:49;;;;;;;;;;;;;;;8.32;74.08;101180.52;106085;1257;124313;-84
2023/10/18 01:34:16;;;;;;;;;;;;;;;8.31;74.22;101180.83;106357;1260;66256;-83
2023/10/18 01:36:43;;;;;;;;;;;;;;;8.26;74.22;101175.05;106242;1261;71539;-82
2023/10/18 01:39:20;;;;;;;;;;;;;;;8.15;74.08;101176.34;106274;1260;124662;-83
2023/10/18 01:41:50;;;;;;;;;;;;;;;8.02;74.16;101176.16;106505;1262;62044;-83
2023/10/18 01:44:33;;;;;;;;;;;;;;;7.90;74.29;101170.95;106445;1260;125455;-83
2023/10/18 01:47:06;;;;;;;;;;;;;;;7.81;74.60;101167.38;106347;1260;65114;-83
2023/10/18 01:49:38;;;;;;;;;;;;;;;7.76;74.90;101166.52;106230;1260;125181;-83
2023/10/18 01:52:06;;;;;;;;;;;;;;;7.72;75.01;101156.34;106426;1258;62281;-83
2023/10/18 01:54:33;;;;;;;;;;;;;;;7.66;74.94;101147.69;106411;1263;62057;-83
2023/10/18 01:57:00;;;;;;;;;;;;;;;7.58;75.09;101149.46;106269;1260;125422;-84
2023/10/18 01:59:27;;;;;;;;;;;;;;;7.50;75.24;101151.21;106507;1261;64667;-84
2023/10/18 02:01:55;;;;;;;;;;;;;;;7.46;75.41;101155.57;106381;1259;125178;-83
2023/10/18 02:04:30;;;;;;;;;;;;;;;7.48;75.76;101142.90;106512;1260;61939;-82
2023/10/18 02:06:57;;;;;;;;;;;;;;;7.53;75.89;101152.06;106562;1260;62089;-83
2023/10/18 02:09:32;;;;;;;;;;;;;;;7.59;76.05;101155.83;106272;1260;124921;-82
2023/10/18 02:11:58;;;;;;;;;;;;;;;7.68;76.29;101154.77;106352;1261;65178;-83
2023/10/18 02:14:25;;;;;;;;;;;;;;;7.77;76.33;101154.31;106373;1261;125812;-83
2023/10/18 02:16:51;;;;;;;;;;;;;;;7.86;76.25;101151.34;106511;1261;62053;-83
2023/10/18 02:19:21;;;;;;;;;;;;;;;7.94;76.38;101151.70;106220;1258;125281;-83
2023/10/18 02:21:48;;;;;;;;;;;;;;;8.04;76.25;101148.94;106280;1260;75600;-83
2023/10/18 02:24:15;;;;;;;;;;;;;;;8.11;76.31;101147.84;106428;1260;65016;-83
2023/10/18 02:26:53;;;;;;;;;;;;;;;8.16;76.17;101145.42;106166;1263;125505;-83
2023/10/18 02:29:23;;;;;;;;;;;;;;;8.14;75.92;101143.45;106424;1260;62166;-83
2023/10/18 02:31:56;;;;;;;;;;;;;;;8.06;75.70;101143.77;106281;1262;124973;-83
2023/10/18 02:34:25;;;;;;;;;;;;;;;7.94;75.61;101144.00;106341;1258;74214;-83
2023/10/18 02:36:52;;;;;;;;;;;;;;;7.83;75.74;101141.10;106338;1260;65587;-84
2023/10/18 02:39:27;;;;;;;;;;;;;;;7.74;75.80;101142.29;106359;1260;125386;-83
2023/10/18 02:41:56;;;;;;;;;;;;;;;7.66;75.95;101142.98;106469;1259;61990;-83
2023/10/18 02:44:22;;;;;;;;;;;;;;;7.63;76.20;101141.98;106399;1262;125069;-82
2023/10/18 02:46:51;;;;;;;;;;;;;;;7.63;76.44;101142.86;106374;1266;76424;-84
2023/10/18 02:49:17;;;;;;;;;;;;;;;7.60;76.48;101139.26;106289;1263;125683;-84
2023/10/18 02:51:47;;;;;;;;;;;;;;;7.62;76.68;101136.67;106379;1259;72697;-84
2023/10/18 02:56:43;;;;;;;;;;;;;;;7.67;76.93;101128.02;106440;1259;124576;-84
2023/10/18 02:59:10;;;;;;;;;;;;;;;7.64;76.84;101126.14;106538;1262;73997;-79
2023/10/18 03:01:40;;;;;;;;;;;;;;;7.58;76.95;101123.79;106314;1258;124632;-78
2023/10/18 03:04:14;;;;;;;;;;;;;;;7.53;77.00;101126.70;106504;1262;71874;-79
2023/10/18 03:06:42;;;;;;;;;;;;;;;7.47;77.13;101127.83;106256;1259;62070;-83
2023/10/18 03:09:26;;;;;;;;;;;;;;;7.44;77.34;101127.02;106417;1260;124553;-84
2023/10/18 03:11:54;;;;;;;;;;;;;;;7.44;77.71;101131.04;106455;1260;74480;-84
2023/10/18 03:14:39;;;;;;;;;;;;;;;7.50;77.92;101132.85;106403;1260;124340;-84
2023/10/18 03:17:19;;;;;;;;;;;;;;;7.55;77.91;101135.02;106391;1259;73337;-84
2023/10/18 03:19:55;;;;;;;;;;;;;;;7.52;77.96;101133.81;106259;1259;124922;-84
2023/10/18 03:22:22;;;;;;;;;;;;;;;7.48;77.93;101129.10;106412;1259;62044;-83
2023/10/18 03:24:56;;;;;;;;;;;;;;;7.42;78.04;101127.99;106465;1264;75578;-83
2023/10/18 03:27:24;;;;;;;;;;;;;;;7.37;78.13;101127.23;106193;1262;124744;-84
2023/10/18 03:29:57;;;;;;;;;;;;;;;7.34;78.31;101124.85;107694;1259;71800;-84
2023/10/18 03:32:24;;;;;;;;;;;;;;;7.30;78.46;101121.89;106460;1259;124950;-85
2023/10/18 03:34:54;;;;;;;;;;;;;;;7.29;78.61;101114.14;106527;1258;61977;-83
2023/10/18 03:37:26;;;;;;;;;;;;;;;7.27;78.68;101115.45;105796;1262;125243;-84
2023/10/18 03:39:53;;;;;;;;;;;;;;;7.30;79.05;101117.51;106582;1264;66255;-84
2023/10/18 03:42:30;;;;;;;;;;;;;;;7.36;79.26;101115.86;106446;1258;72521;-83
2023/10/18 03:44:58;;;;;;;;;;;;;;;7.41;79.35;101110.65;106241;1261;125147;-77
2023/10/18 03:47:25;;;;;;;;;;;;;;;7.45;79.42;101111.68;105885;1260;62105;-77
2023/10/18 03:49:53;;;;;;;;;;;;;;;7.52;79.64;101111.98;105928;1260;125401;-78
2023/10/18 03:52:21;;;;;;;;;;;;;;;7.60;79.67;101107.45;106267;1264;66237;-78
2023/10/18 03:57:37;;;;;;;;;;;;;;;7.68;79.58;101103.59;106207;1260;124801;-83
2023/10/18 04:00:28;;;;;;;;;;;;;;;7.68;79.56;101087.38;106510;1261;62163;-83
2023/10/18 04:02:59;;;;;;;;;;;;;;;7.65;79.42;101082.16;106343;1260;125057;-77
2023/10/18 04:05:45;;;;;;;;;;;;;;;7.58;79.35;101082.05;106353;1260;65013;-77
2023/10/18 04:08:16;;;;;;;;;;;;;;;7.52;79.41;101082.33;105591;1260;125323;-77
2023/10/18 04:10:43;;;;;;;;;;;;;;;7.46;79.46;101077.89;105767;1258;62230;-76
2023/10/18 04:13:13;;;;;;;;;;;;;;;7.39;79.47;101071.66;106398;1260;125301;-81
2023/10/18 04:15:43;;;;;;;;;;;;;;;7.34;79.58;101068.61;106320;1259;75100;-82
2023/10/18 04:20:37;;;;;;;;;;;;;;;7.26;79.79;101058.30;106376;1262;125382;-83
2023/10/18 04:23:14;;;;;;;;;;;;;;;7.23;79.89;101061.33;106332;1264;62076;-82
2023/10/18 04:25:41;;;;;;;;;;;;;;;7.20;80.02;101054.60;106385;1258;125276;-82
2023/10/18 04:28:10;;;;;;;;;;;;;;;7.19;80.16;101049.81;106459;1258;73195;-82
2023/10/18 04:30:38;;;;;;;;;;;;;;;7.17;80.19;101044.89;106326;1260;65931;-83
2023/10/18 04:35:44;;;;;;;;;;;;;;;7.15;80.37;101044.79;106433;1260;62175;-82
2023/10/18 04:38:22;;;;;;;;;;;;;;;7.16;80.39;101043.42;105738;1259;125068;-81
2023/10/18 04:40:52;;;;;;;;;;;;;;;7.14;80.51;101032.33;106409;1262;74193;-80
2023/10/18 04:43:22;;;;;;;;;;;;;;;7.14;80.55;101033.56;106259;1260;127525;-79
2023/10/18 04:45:59;;;;;;;;;;;;;;;7.12;80.53;101030.67;106475;1261;71644;-81
2023/10/18 04:51:26;;;;;;;;;;;;;;;7.07;80.61;101034.47;105687;1260;125111;-80
2023/10/18 04:53:54;;;;;;;;;;;;;;;7.05;80.74;101035.78;106494;1262;75022;-79
2023/10/18 04:56:29;;;;;;;;;;;;;;;7.05;80.79;101038.73;106156;1262;124980;-79
2023/10/18 04:58:59;;;;;;;;;;;;;;;7.06;80.88;101041.04;106266;1262;71349;-79
2023/10/18 05:01:34;;;;;;;;;;;;;;;7.07;81.00;101042.29;106234;1257;126545;-78
2023/10/18 05:06:56;;;;;;;;;;;;;;;7.10;81.06;101043.52;105833;1259;75510;-79
2023/10/18 05:09:41;;;;;;;;;;;;;;;7.12;81.12;101047.59;106259;1260;125651;-77
2023/10/18 05:12:16;;;;;;;;;;;;;;;7.12;81.05;101055.44;106475;1260;71416;-76
2023/10/18 05:14:43;;;;;;;;;;;;;;;7.09;81.06;101054.10;105633;1263;125313;-80
2023/10/18 05:17:23;;;;;;;;;;;;;;;7.08;81.03;101058.05;106409;1260;61978;-81
2023/10/18 05:19:50;;;;;;;;;;;;;;;7.07;81.22;101063.42;106094;1258;126424;-83
2023/10/18 05:22:19;;;;;;;;;;;;;;;7.08;81.36;101062.41;105986;1263;67435;-82
2023/10/18 05:24:54;;;;;;;;;;;;;;;7.12;81.52;101061.21;105916;1259;72451;-82
2023/10/18 05:27:26;;;;;;;;;;;;;;;7.19;81.66;101065.38;105747;1260;125838;-81
2023/10/18 05:29:53;;;;;;;;;;;;;;;7.27;81.63;101063.59;106533;1260;62000;-83
2023/10/18 05:33:03;;;;;;;;;;;;;;;7.32;81.60;101066.64;106382;1260;125590;-81
2023/10/18 05:37:58;;;;;;;;;;;;;;;7.44;81.54;101064.48;106746;1258;124942;-82
2023/10/18 05:43:12;;;;;;;;;;;;;;;7.52;81.51;101058.92;106336;1259;125285;-82
2023/10/18 05:45:41;;;;;;;;;;;;;;;7.57;81.46;101060.02;106849;1259;74392;-83
2023/10/18 05:48:17;;;;;;;;;;;;;;;7.64;81.61;101060.11;106981;1260;64113;-83
2023/10/18 05:50:56;;;;;;;;;;;;;;;7.75;81.71;101062.00;106437;1259;125095;-83
2023/10/18 05:53:28;;;;;;;;;;;;;;;7.86;81.65;101062.59;106513;1260;62155;-83
2023/10/18 05:55:55;;;;;;;;;;;;;;;7.91;81.38;101067.00;106288;1259;126425;-83
2023/10/18 05:58:28;;;;;;;;;;;;;;;7.93;81.26;101064.11;106362;1259;75013;-84
2023/10/18 06:00:58;;;;;;;;;;;;;;;7.96;81.27;101065.81;106451;1259;66271;-78
2023/10/18 06:03:27;;;;;;;;;;;;;;;7.99;81.21;101062.59;106218;1263;125337;-79
2023/10/18 06:05:58;;;;;;;;;;;;;;;8.01;81.24;101064.41;106463;1259;62002;-78
2023/10/18 06:08:25;;;;;;;;;;;;;;;8.06;81.31;101064.44;106328;1263;125482;-83
2023/10/18 06:10:56;;;;;;;;;;;;;;;8.14;81.40;101069.13;106450;1258;75509;-83
2023/10/18 06:13:26;;;;;;;;;;;;;;;8.24;81.46;101071.10;106247;1259;125513;-84
2023/10/18 06:15:58;;;;;;;;;;;;;;;8.33;81.30;101074.29;106355;1262;72821;-82
2023/10/18 06:18:30;;;;;;;;;;;;;;;8.41;81.26;101064.95;106725;1259;60318;-82
2023/10/18 06:20:59;;;;;;;;;;;;;;;8.49;81.22;101065.46;106574;1260;125849;-80
2023/10/18 06:26:07;;;;;;;;;;;;;;;8.58;80.93;101058.79;106059;1260;125531;-82
2023/10/18 06:28:37;;;;;;;;;;;;;;;8.65;80.99;101057.52;105965;1260;72547;-82
2023/10/18 06:31:04;;;;;;;;;;;;;;;8.75;81.07;101061.92;106738;1260;126254;-84
2023/10/18 06:33:35;;;;;;;;;;;;;;;8.86;80.95;101061.59;106802;1262;62091;-83
2023/10/18 06:36:11;;;;;;;;;;;;;;;8.92;80.84;101062.00;106705;1260;74637;-84
2023/10/18 06:38:42;;;;;;;;;;;;;;;8.99;80.73;101068.89;106494;1258;125086;-84
2023/10/18 06:41:18;;;;;;;;;;;;;;;9.05;80.62;101070.54;106658;1257;72724;-83
2023/10/18 06:43:45;;;;;;;;;;;;;;;9.14;80.37;101069.27;106752;1258;126173;-83
2023/10/18 06:46:13;;;;;;;;;;;;;;;9.22;80.60;101073.60;106608;1260;62003;-83
2023/10/18 06:48:43;;;;;;;;;;;;;;;9.31;80.49;101079.84;106455;1259;74876;-83
2023/10/18 06:51:26;;;;;;;;;;;;;;;9.41;80.42;101080.56;106377;1262;125186;-83
2023/10/18 06:53:55;;;;;;;;;;;;;;;9.57;80.40;101081.81;106466;1258;72736;-84
2023/10/18 06:56:25;;;;;;;;;;;;;;;9.74;80.41;101083.96;106322;1261;125306;-84
2023/10/18 06:58:53;;;;;;;;;;;;;;;9.88;80.21;101082.48;106415;1260;62060;-84
2023/10/18 07:01:19;;;;;;;;;;;;;;;10.00;80.11;101087.46;106285;1259;125150;-84
2023/10/18 07:03:47;;;;;;;;;;;;;;;10.09;79.97;101084.07;106457;1260;64942;-83
2023/10/18 07:06:18;;;;;;;;;;;;;;;10.21;79.77;101082.50;106449;1259;71783;-83
2023/10/18 07:08:45;;;;;;;;;;;;;;;10.34;79.79;101077.15;106497;1262;125493;-83
2023/10/18 07:11:18;;;;;;;;;;;;;;;10.49;79.80;101072.52;106596;1260;60746;-84
2023/10/18 07:13:50;;;;;;;;;;;;;;;10.65;79.71;101072.15;106626;1259;125655;-84
2023/10/18 07:21:46;;;;;;;;;;;;;;;11.00;79.06;101067.19;106643;1259;61988;-83
2023/10/18 07:24:13;;;;;;;;;;;;;;;11.04;78.78;101065.00;106532;1259;61970;-78
2023/10/18 07:26:39;;;;;;;;;;;;;;;11.07;78.59;101068.60;106481;1258;124839;-78
2023/10/18 07:29:09;;;;;;;;;;;;;;;11.06;78.39;101066.83;106519;1258;65409;-78
2023/10/18 07:31:39;;;;;;;;;;;;;;;11.03;78.21;101067.61;106426;1259;125390;-79
2023/10/18 07:34:08;;;;;;;;;;;;;;;11.00;78.14;101068.23;106193;1259;62255;-79
2023/10/18 07:36:38;;;;;;;;;;;;;;;10.96;78.03;101068.30;107392;1261;60279;-78
2023/10/18 07:39:05;;;;;;;;;;;;;;;10.96;78.10;101071.81;106295;1259;125784;-78
2023/10/18 07:41:34;;;;;;;;;;;;;;;10.97;78.13;101072.89;106306;1258;66288;-78
2023/10/18 07:44:01;;;;;;;;;;;;;;;10.98;78.10;101078.02;106150;1259;125091;-78
2023/10/18 07:46:28;;;;;;;;;;;;;;;11.04;78.28;101082.23;106346;1260;62214;-78
2023/10/18 07:48:56;;;;;;;;;;;;;;;11.16;78.33;101075.01;106267;1260;62036;-79
2023/10/18 07:51:31;;;;;;;;;;;;;;;11.37;78.47;101075.92;106202;1258;125076;-79
2023/10/18 07:53:59;;;;;;;;;;;;;;;11.56;78.24;101075.36;106391;1260;64995;-83
2023/10/18 07:56:32;;;;;;;;;;;;;;;11.70;78.10;101075.02;106326;1259;125169;-82
2023/10/18 08:01:47;;;;;;;;;;;;;;;11.91;77.45;101077.15;106378;1259;125368;-83
2023/10/18 08:04:17;;;;;;;;;;;;;;;11.99;77.34;101077.20;106444;1259;74599;-79
2023/10/18 08:06:44;;;;;;;;;;;;;;;12.06;77.05;101084.59;106458;1259;66266;-78
2023/10/18 08:09:17;;;;;;;;;;;;;;;12.06;76.82;101089.31;106225;1260;125214;-78
2023/10/18 08:11:44;;;;;;;;;;;;;;;11.99;76.47;101093.20;106195;1264;62255;-79
2023/10/18 08:14:19;;;;;;;;;;;;;;;11.91;76.45;101089.48;106207;1260;125990;-79
2023/10/18 08:16:52;;;;;;;;;;;;;;;11.83;76.54;101087.84;106341;1259;74160;-79
2023/10/18 08:19:22;;;;;;;;;;;;;;;11.82;76.62;101085.70;106204;1259;125832;-79
2023/10/18 08:24:52;;;;;;;;;;;;;;;11.97;76.86;101089.62;105885;1270;62216;-79
2023/10/18 08:27:18;;;;;;;;;;;;;;;11.99;76.82;101088.79;105860;1268;126056;-79
2023/10/18 08:29:52;;;;;;;;;;;;;;;12.00;76.81;101085.84;105804;1268;73432;-79
2023/10/18 08:32:29;;;;;;;;;;;;;;;12.06;76.68;101092.86;105886;1270;124680;-78
2023/10/18 08:35:05;;;;;;;;;;;;;;;12.14;76.64;101093.73;105526;1268;71118;-78
2023/10/18 08:37:32;;;;;;;;;;;;;;;12.22;76.47;101090.06;105786;1265;124820;-78
2023/10/18 08:39:59;;;;;;;;;;;;;;;12.31;76.43;101093.61;105970;1265;61968;-78
2023/10/18 08:42:30;;;;;;;;;;;;;;;12.40;76.41;101086.42;105965;1268;76570;-78
2023/10/18 08:44:56;;;;;;;;;;;;;;;12.49;76.26;101085.76;105692;1268;124961;-78
2023/10/18 08:47:23;;;;;;;;;;;;;;;12.52;76.17;101084.07;105782;1265;72743;-78
2023/10/18 08:49:56;;;;;;;;;;;;;;;12.55;75.98;101087.64;105699;1270;125333;-78
2023/10/18 08:52:30;;;;;;;;;;;;;;;12.59;75.82;101091.96;105871;1266;62080;-79
2023/10/18 08:54:59;;;;;;;;;;;;;;;12.66;75.51;101085.59;105861;1266;75332;-77
2023/10/18 08:57:35;;;;;;;;;;;;;;;12.67;75.41;101086.51;105843;1268;64963;-78
2023/10/18 09:02:50;;;;;;;;;;;;;;;12.83;75.27;101086.67;106780;1260;125224;-79
2023/10/18 09:05:25;;;;;;;;;;;;;;;12.94;75.28;101091.29;107655;1259;60339;-79
2023/10/18 09:07:51;;;;;;;;;;;;;;;13.07;75.38;101090.86;106419;1259;125320;-78
2023/10/18 09:16:19;;;;;;;;;;;;;;;13.19;74.64;101094.11;106574;1257;62060;-78
2023/10/18 09:18:37;;;;;;;;;;;;;;;13.19;74.55;101098.34;106341;1258;231538;-78
2023/10/18 09:21:17;;;;;;;;;;;;;;;13.19;74.43;101096.38;106409;1259;124682;-78
2023/10/18 09:23:44;;;;;;;;;;;;;;;13.18;74.37;101094.62;106387;1261;65971;-79
2023/10/18 09:26:11;;;;;;;;;;;;;;;13.17;74.30;101096.35;106251;1260;124430;-79
2023/10/18 09:28:38;;;;;;;;;;;;;;;13.15;74.32;101097.89;106453;1259;62149;-79
2023/10/18 09:31:09;;;;;;;;;;;;;;;13.19;74.28;101099.55;106299;1259;62098;-77
2023/10/18 09:33:40;;;;;;;;;;;;;;;13.27;74.21;101098.64;106341;1262;74159;-78
2023/10/18 09:36:27;;;;;;;;;;;;;;;13.34;74.10;101094.95;106275;1263;66259;-78
2023/10/18 09:38:54;;;;;;;;;;;;;;;13.38;74.08;101089.39;106115;1258;124743;-79
2023/10/18 09:41:21;;;;;;;;;;;;;;;13.43;73.97;101093.71;106250;1259;62088;-79
2023/10/18 09:43:48;;;;;;;;;;;;;;;13.49;74.06;101098.58;106123;1259;125293;-77
2023/10/18 09:46:15;;;;;;;;;;;;;;;13.50;73.84;101098.06;106293;1264;76057;-78
2023/10/18 09:48:42;;;;;;;;;;;;;;;13.46;73.73;101097.46;106373;1260;66497;-78
2023/10/18 09:51:15;;;;;;;;;;;;;;;13.44;73.69;101095.83;106312;1259;125579;-78
2023/10/18 09:53:49;;;;;;;;;;;;;;;13.48;73.84;101101.03;106330;1258;60294;-78
2023/10/18 09:56:19;;;;;;;;;;;;;;;13.58;73.98;101102.09;106337;1262;125656;-78
2023/10/18 09:58:51;;;;;;;;;;;;;;;13.60;73.78;101106.00;106275;1259;74213;-78
2023/10/18 10:02:07;;;;;;;;;;;;;;;13.54;73.66;101104.14;106225;1260;124695;-78
2023/10/18 10:04:14;;;;;;;;;;;;;;;13.49;73.49;101104.92;106346;1258;72643;-83
2023/10/18 10:06:47;;;;;;;;;;;;;;;13.39;73.56;101104.20;106361;1263;62008;-83
2023/10/18 10:09:14;;;;;;;;;;;;;;;13.22;73.32;101107.19;106398;1262;125430;-83
2023/10/18 10:11:43;;;;;;;;;;;;;;;12.97;73.41;101103.17;106502;1262;74630;-84
2023/10/18 10:14:15;;;;;;;;;;;;;;;12.73;73.62;101106.71;106430;1262;124466;-79
2023/10/18 10:16:45;;;;;;;;;;;;;;;12.50;73.86;101112.52;106396;1260;71472;-83
2023/10/18 10:19:12;;;;;;;;;;;;;;;12.36;74.18;101116.77;106480;1262;124630;-83
2023/10/18 10:21:40;;;;;;;;;;;;;;;12.25;74.66;101113.71;106585;1260;62137;-84
2023/10/18 10:24:14;;;;;;;;;;;;;;;12.22;75.01;101115.39;106497;1261;75415;-85
2023/10/18 10:26:42;;;;;;;;;;;;;;;12.16;75.07;101111.55;106540;1259;125500;-83
2023/10/18 10:29:24;;;;;;;;;;;;;;;12.13;75.25;101113.05;106363;1264;71257;-82
2023/10/18 10:31:55;;;;;;;;;;;;;;;12.08;75.16;101118.73;106284;1259;125899;-83
2023/10/18 10:34:32;;;;;;;;;;;;;;;12.09;75.47;101118.25;106533;1260;62051;-83
2023/10/18 10:37:08;;;;;;;;;;;;;;;12.07;75.28;101121.70;106405;1263;73226;-83
2023/10/18 10:39:36;;;;;;;;;;;;;;;12.01;75.27;101122.09;106407;1259;65830;-82
2023/10/18 10:42:09;;;;;;;;;;;;;;;11.98;75.57;101118.66;106498;1259;72738;-83
2023/10/18 10:44:54;;;;;;;;;;;;;;;12.05;75.90;101116.40;106267;1259;125419;-83
2023/10/18 10:47:30;;;;;;;;;;;;;;;12.33;76.54;101114.42;106324;1258;60579;-83
2023/10/18 10:49:58;;;;;;;;;;;;;;;12.53;76.07;101103.44;106298;1262;126148;-84
2023/10/18 10:52:29;;;;;;;;;;;;;;;12.56;75.50;101101.39;106497;1262;66125;-83
2023/10/18 10:55:01;;;;;;;;;;;;;;;12.56;75.14;101102.99;106662;1259;73119;-83
2023/10/18 10:57:29;;;;;;;;;;;;;;;12.60;75.34;101097.61;106394;1258;124298;-83
2023/10/18 10:59:56;;;;;;;;;;;;;;;12.74;75.47;101098.11;106415;1264;60622;-83
2023/10/18 11:02:39;;;;;;;;;;;;;;;12.86;75.14;101095.00;106248;1258;124745;-83
2023/10/18 11:05:15;;;;;;;;;;;;;;;12.84;74.85;101096.73;106392;1264;65513;-83
2023/10/18 11:07:42;;;;;;;;;;;;;;;12.80;74.71;101094.19;106361;1260;125630;-83
2023/10/18 11:10:16;;;;;;;;;;;;;;;12.78;74.56;101087.09;106335;1264;62162;-83
2023/10/18 11:12:45;;;;;;;;;;;;;;;12.74;74.65;101087.69;106415;1260;62084;-83
2023/10/18 11:15:18;;;;;;;;;;;;;;;12.74;74.68;101085.23;106234;1260;126721;-83
2023/10/18 11:17:52;;;;;;;;;;;;;;;12.78;74.65;101084.29;106416;1260;65041;-84
2023/10/18 11:20:29;;;;;;;;;;;;;;;12.79;74.39;101082.52;106268;1260;125224;-84
2023/10/18 11:22:56;;;;;;;;;;;;;;;12.73;73.98;101082.92;106501;1262;62416;-83
2023/10/18 11:25:30;;;;;;;;;;;;;;;12.63;73.67;101082.39;106415;1259;126174;-83
2023/10/18 11:28:10;;;;;;;;;;;;;;;12.55;73.58;101075.84;106425;1259;75520;-83
2023/10/18 11:30:37;;;;;;;;;;;;;;;12.56;73.82;101073.77;106329;1261;65243;-83
2023/10/18 11:33:04;;;;;;;;;;;;;;;12.66;74.02;101069.59;106248;1260;124833;-82
2023/10/18 11:35:42;;;;;;;;;;;;;;;12.84;74.03;101065.71;106393;1261;62080;-83
2023/10/18 11:38:10;;;;;;;;;;;;;;;13.09;73.97;101066.41;106289;1262;124798;-83
2023/10/18 11:40:40;;;;;;;;;;;;;;;13.36;73.85;101060.61;106417;1260;74287;-83
2023/10/18 11:43:07;;;;;;;;;;;;;;;13.66;73.59;101058.31;106399;1259;65142;-83
2023/10/18 11:45:36;;;;;;;;;;;;;;;13.89;72.87;101055.89;106315;1259;124990;-82
2023/10/18 11:48:05;;;;;;;;;;;;;;;13.99;72.29;101059.41;106402;1259;62056;-83
2023/10/18 11:50:39;;;;;;;;;;;;;;;13.96;71.64;101061.64;106309;1260;125115;-82
2023/10/18 11:53:15;;;;;;;;;;;;;;;13.82;71.09;101057.37;106441;1260;74211;-83
2023/10/18 11:55:55;;;;;;;;;;;;;;;13.70;71.07;101055.94;106319;1259;125454;-78
2023/10/18 11:58:25;;;;;;;;;;;;;;;13.59;71.07;101055.04;106253;1263;71572;-79
2023/10/18 12:01:01;;;;;;;;;;;;;;;13.48;70.92;101053.43;106335;1260;60348;-79
2023/10/18 12:03:28;;;;;;;;;;;;;;;13.38;70.55;101053.95;106306;1265;124228;-79
2023/10/18 12:05:55;;;;;;;;;;;;;;;13.30;70.49;101053.07;106532;1259;75657;-79
2023/10/18 12:08:23;;;;;;;;;;;;;;;13.24;70.47;101055.41;106515;1264;124450;-79
2023/10/18 12:10:50;;;;;;;;;;;;;;;13.18;70.53;101049.86;106695;1258;72880;-79
2023/10/18 12:13:20;;;;;;;;;;;;;;;13.18;70.70;101049.83;106200;1259;124735;-79
2023/10/18 12:15:50;;;;;;;;;;;;;;;13.15;70.59;101054.20;106246;1259;61983;-79
2023/10/18 12:18:16;;;;;;;;;;;;;;;13.09;70.21;101056.19;106209;1265;75384;-79
2023/10/18 12:20:43;;;;;;;;;;;;;;;13.02;70.50;101053.77;106279;1259;125260;-79
2023/10/18 12:23:12;;;;;;;;;;;;;;;13.01;70.63;101054.80;106455;1264;72882;-83
2023/10/18 12:25:42;;;;;;;;;;;;;;;13.00;70.66;101050.90;106232;1265;126827;-79
2023/10/18 12:28:12;;;;;;;;;;;;;;;13.00;70.76;101049.31;107794;1260;60791;-79
2023/10/18 12:30:41;;;;;;;;;;;;;;;13.03;70.81;101049.20;106324;1260;74404;-80
2023/10/18 12:33:14;;;;;;;;;;;;;;;13.09;70.71;101046.85;106219;1259;124940;-79
2023/10/18 12:35:41;;;;;;;;;;;;;;;13.13;70.56;101041.82;106427;1259;72766;-76
2023/10/18 12:38:15;;;;;;;;;;;;;;;13.13;70.69;101036.89;106326;1263;125240;-79
2023/10/18 12:40:51;;;;;;;;;;;;;;;13.18;70.92;101038.91;105934;1261;60163;-79
2023/10/18 12:43:19;;;;;;;;;;;;;;;13.29;70.83;101044.77;106227;1262;125043;-79
2023/10/18 12:45:50;;;;;;;;;;;;;;;13.44;70.69;101041.89;105814;1265;65992;-79
2023/10/18 12:48:22;;;;;;;;;;;;;;;13.61;70.53;101043.43;106260;1259;71417;-79
2023/10/18 12:50:50;;;;;;;;;;;;;;;13.75;70.25;101042.79;106214;1264;125075;-82
2023/10/18 12:53:36;;;;;;;;;;;;;;;13.88;70.02;101041.58;106106;1260;62133;-78
2023/10/18 12:59:22;;;;;;;;;;;;;;;13.84;69.11;101044.70;105370;1259;66409;-79
2023/10/18 13:01:46;;;;;;;;;;;;;;;13.76;68.68;101043.69;106186;1259;125165;-79
2023/10/18 13:04:19;;;;;;;;;;;;;;;13.74;68.83;101043.46;106848;1262;62176;-79
2023/10/18 13:06:46;;;;;;;;;;;;;;;13.77;68.69;101041.23;106204;1265;62175;-79
2023/10/18 13:14:07;;;;;;;;;;;;;;;13.75;68.20;101044.89;106251;1262;125110;-76
2023/10/18 13:16:34;;;;;;;;;;;;;;;13.72;68.32;101046.25;105808;1263;61920;-83
2023/10/18 13:19:03;;;;;;;;;;;;;;;13.74;68.46;101048.23;105974;1264;60683;-83
2023/10/18 13:21:30;;;;;;;;;;;;;;;13.83;68.51;101047.69;105769;1260;124644;-83
2023/10/18 13:23:59;;;;;;;;;;;;;;;14.04;68.59;101046.42;105903;1263;65027;-83
2023/10/18 13:26:32;;;;;;;;;;;;;;;14.22;68.68;101043.00;105750;1264;125438;-83
2023/10/18 13:29:02;;;;;;;;;;;;;;;14.40;68.49;101043.41;105852;1260;62523;-83
2023/10/18 13:31:32;;;;;;;;;;;;;;;14.49;68.23;101042.66;105837;1261;125216;-84
2023/10/18 13:33:59;;;;;;;;;;;;;;;14.55;67.84;101032.52;105774;1262;75608;-83
2023/10/18 13:36:26;;;;;;;;;;;;;;;14.56;67.63;101035.02;106011;1262;65532;-84
2023/10/18 13:38:53;;;;;;;;;;;;;;;14.52;67.30;101033.52;105732;1260;124860;-83
2023/10/18 13:41:20;;;;;;;;;;;;;;;14.50;67.30;101033.49;106266;1259;62177;-83